sensor_id;sensor_type;location;lat;lon;timestamp;P1;durP1;ratioP1;P2;durP2;ratioP2
14554;SDS011;7364;50.870;4.722;2023-05-10T00:01:55;0.57;;;0.57;;
14554;SDS011;7364;50.870;4.722;2023-05-10T00:04:23;0.77;;;0.77;;
14554;SDS011;7364;50.870;4.722;2023-05-10T00:06:52;1.17;;;1.13;;
14554;SDS011;7364;50.870;4.722;2023-05-10T00:09:21;0.20;;;0.20;;
14554;SDS011;7364;50.870;4.722;2023-05-10T00:11:48;2.53;;;2.33;;
14554;SDS011;7364;50.870;4.722;2023-05-10T00:14:16;0.67;;;0.67;;
14554;SDS011;7364;50.870;4.722;2023-05-10T00:16:43;0.20;;;0.20;;
14554;SDS011;7364;50.870;4.722;2023-05-10T00:19:11;0.67;;;0.67;;
14554;SDS011;7364;50.870;4.722;2023-05-10T00:21:38;0.43;;;0.43;;
14554;SDS011;7364;50.870;4.722;2023-05-10T00:24:05;1.27;;;1.17;;
14554;SDS011;7364;50.870;4.722;2023-05-10T00:26:34;9.70;;;1.80;;
14554;SDS011;7364;50.870;4.722;2023-05-10T00:29:01;0.00;;;0.00;;
14554;SDS011;7364;50.870;4.722;2023-05-10T00:31:31;0.17;;;0.17;;
14554;SDS011;7364;50.870;4.722;2023-05-10T00:33:58;0.73;;;0.73;;
14554;SDS011;7364;50.870;4.722;2023-05-10T00:36:25;0.30;;;0.30;;
14554;SDS011;7364;50.870;4.722;2023-05-10T00:38:55;0.60;;;0.60;;
14554;SDS011;7364;50.870;4.722;2023-05-10T00:41:23;0.50;;;0.50;;
14554;SDS011;7364;50.870;4.722;2023-05-10T00:43:51;0.27;;;0.27;;
14554;SDS011;7364;50.870;4.722;2023-05-10T00:46:19;0.03;;;0.03;;
14554;SDS011;7364;50.870;4.722;2023-05-10T00:48:47;1.13;;;1.10;;
14554;SDS011;7364;50.870;4.722;2023-05-10T00:51:14;0.47;;;0.47;;
14554;SDS011;7364;50.870;4.722;2023-05-10T00:53:42;4.40;;;3.90;;
14554;SDS011;7364;50.870;4.722;2023-05-10T00:56:11;9.73;;;8.67;;
14554;SDS011;7364;50.870;4.722;2023-05-10T00:58:39;10.77;;;8.63;;
14554;SDS011;7364;50.870;4.722;2023-05-10T01:01:07;12.73;;;8.37;;
14554;SDS011;7364;50.870;4.722;2023-05-10T01:03:35;14.67;;;8.53;;
14554;SDS011;7364;50.870;4.722;2023-05-10T01:06:03;14.83;;;8.63;;
14554;SDS011;7364;50.870;4.722;2023-05-10T01:08:31;13.00;;;8.10;;
14554;SDS011;7364;50.870;4.722;2023-05-10T01:10:58;11.93;;;8.90;;
14554;SDS011;7364;50.870;4.722;2023-05-10T01:13:29;16.93;;;8.87;;
14554;SDS011;7364;50.870;4.722;2023-05-10T01:15:59;10.37;;;8.50;;
14554;SDS011;7364;50.870;4.722;2023-05-10T01:18:30;12.77;;;9.10;;
14554;SDS011;7364;50.870;4.722;2023-05-10T01:21:14;14.03;;;9.30;;
14554;SDS011;7364;50.870;4.722;2023-05-10T01:24:08;15.30;;;9.23;;
14554;SDS011;7364;50.870;4.722;2023-05-10T01:33:02;9.20;;;8.03;;
14554;SDS011;7364;50.870;4.722;2023-05-10T01:35:37;12.03;;;8.63;;
14554;SDS011;7364;50.870;4.722;2023-05-10T01:38:12;13.40;;;10.07;;
14554;SDS011;7364;50.870;4.722;2023-05-10T01:40:47;17.63;;;8.90;;
14554;SDS011;7364;50.870;4.722;2023-05-10T01:43:19;12.37;;;9.53;;
14554;SDS011;7364;50.870;4.722;2023-05-10T01:45:56;19.00;;;10.33;;
14554;SDS011;7364;50.870;4.722;2023-05-10T01:48:37;17.13;;;9.97;;
14554;SDS011;7364;50.870;4.722;2023-05-10T01:51:12;12.60;;;9.30;;
14554;SDS011;7364;50.870;4.722;2023-05-10T01:53:42;15.13;;;10.53;;
14554;SDS011;7364;50.870;4.722;2023-05-10T01:56:11;16.30;;;10.97;;
14554;SDS011;7364;50.870;4.722;2023-05-10T01:58:40;14.20;;;10.77;;
14554;SDS011;7364;50.870;4.722;2023-05-10T02:01:12;17.63;;;10.50;;
14554;SDS011;7364;50.870;4.722;2023-05-10T02:03:42;16.30;;;10.53;;
14554;SDS011;7364;50.870;4.722;2023-05-10T02:06:11;14.03;;;11.87;;
14554;SDS011;7364;50.870;4.722;2023-05-10T02:08:41;18.07;;;10.77;;
14554;SDS011;7364;50.870;4.722;2023-05-10T02:11:10;14.27;;;10.77;;
14554;SDS011;7364;50.870;4.722;2023-05-10T02:13:40;15.53;;;11.33;;
14554;SDS011;7364;50.870;4.722;2023-05-10T02:16:08;18.23;;;11.80;;
14554;SDS011;7364;50.870;4.722;2023-05-10T02:18:36;15.73;;;12.30;;
14554;SDS011;7364;50.870;4.722;2023-05-10T02:21:07;16.87;;;11.80;;
14554;SDS011;7364;50.870;4.722;2023-05-10T02:23:36;20.30;;;11.80;;
14554;SDS011;7364;50.870;4.722;2023-05-10T02:26:03;15.97;;;12.53;;
14554;SDS011;7364;50.870;4.722;2023-05-10T02:28:32;18.50;;;13.03;;
14554;SDS011;7364;50.870;4.722;2023-05-10T02:31:00;15.13;;;11.93;;
14554;SDS011;7364;50.870;4.722;2023-05-10T02:33:28;15.07;;;12.27;;
14554;SDS011;7364;50.870;4.722;2023-05-10T02:35:57;19.93;;;13.63;;
14554;SDS011;7364;50.870;4.722;2023-05-10T02:38:26;17.27;;;13.63;;
14554;SDS011;7364;50.870;4.722;2023-05-10T02:40:54;18.23;;;12.50;;
14554;SDS011;7364;50.870;4.722;2023-05-10T02:43:21;15.00;;;12.67;;
14554;SDS011;7364;50.870;4.722;2023-05-10T02:45:50;19.70;;;13.73;;
14554;SDS011;7364;50.870;4.722;2023-05-10T02:48:17;17.83;;;13.27;;
14554;SDS011;7364;50.870;4.722;2023-05-10T02:50:45;18.30;;;13.17;;
14554;SDS011;7364;50.870;4.722;2023-05-10T02:53:18;18.10;;;13.40;;
14554;SDS011;7364;50.870;4.722;2023-05-10T02:55:52;20.40;;;13.30;;
14554;SDS011;7364;50.870;4.722;2023-05-10T02:58:23;17.30;;;13.13;;
14554;SDS011;7364;50.870;4.722;2023-05-10T03:00:51;18.80;;;13.33;;
14554;SDS011;7364;50.870;4.722;2023-05-10T03:03:19;14.23;;;12.73;;
14554;SDS011;7364;50.870;4.722;2023-05-10T03:05:46;14.83;;;13.30;;
14554;SDS011;7364;50.870;4.722;2023-05-10T03:08:13;18.23;;;13.43;;
14554;SDS011;7364;50.870;4.722;2023-05-10T03:10:41;14.23;;;12.63;;
14554;SDS011;7364;50.870;4.722;2023-05-10T03:13:22;16.43;;;12.43;;
14554;SDS011;7364;50.870;4.722;2023-05-10T03:15:57;19.60;;;13.23;;
14554;SDS011;7364;50.870;4.722;2023-05-10T03:18:29;13.70;;;11.70;;
14554;SDS011;7364;50.870;4.722;2023-05-10T03:21:03;15.20;;;10.80;;
14554;SDS011;7364;50.870;4.722;2023-05-10T03:23:34;16.50;;;12.93;;
14554;SDS011;7364;50.870;4.722;2023-05-10T03:26:05;15.40;;;11.63;;
14554;SDS011;7364;50.870;4.722;2023-05-10T03:28:35;14.47;;;12.53;;
14554;SDS011;7364;50.870;4.722;2023-05-10T03:31:02;18.13;;;12.47;;
14554;SDS011;7364;50.870;4.722;2023-05-10T03:33:32;16.83;;;12.07;;
14554;SDS011;7364;50.870;4.722;2023-05-10T03:35:59;16.17;;;12.10;;
14554;SDS011;7364;50.870;4.722;2023-05-10T03:38:26;17.80;;;12.70;;
14554;SDS011;7364;50.870;4.722;2023-05-10T03:40:53;18.27;;;12.37;;
14554;SDS011;7364;50.870;4.722;2023-05-10T03:43:20;18.47;;;12.23;;
14554;SDS011;7364;50.870;4.722;2023-05-10T03:45:49;16.00;;;11.57;;
14554;SDS011;7364;50.870;4.722;2023-05-10T03:48:19;14.93;;;11.87;;
14554;SDS011;7364;50.870;4.722;2023-05-10T03:50:49;17.77;;;13.27;;
14554;SDS011;7364;50.870;4.722;2023-05-10T03:53:17;19.30;;;14.63;;
14554;SDS011;7364;50.870;4.722;2023-05-10T03:55:44;15.97;;;10.50;;
14554;SDS011;7364;50.870;4.722;2023-05-10T03:58:11;18.67;;;11.33;;
14554;SDS011;7364;50.870;4.722;2023-05-10T04:00:39;14.37;;;11.67;;
14554;SDS011;7364;50.870;4.722;2023-05-10T04:03:10;18.50;;;13.47;;
14554;SDS011;7364;50.870;4.722;2023-05-10T04:05:37;29.70;;;12.33;;
14554;SDS011;7364;50.870;4.722;2023-05-10T04:08:05;20.47;;;13.23;;
14554;SDS011;7364;50.870;4.722;2023-05-10T04:10:33;7.63;;;5.83;;
14554;SDS011;7364;50.870;4.722;2023-05-10T04:13:00;0.87;;;0.73;;
14554;SDS011;7364;50.870;4.722;2023-05-10T04:15:27;4.00;;;1.80;;
14554;SDS011;7364;50.870;4.722;2023-05-10T04:17:54;1.80;;;1.70;;
14554;SDS011;7364;50.870;4.722;2023-05-10T04:20:23;2.97;;;2.30;;
14554;SDS011;7364;50.870;4.722;2023-05-10T04:22:50;1.10;;;0.83;;
14554;SDS011;7364;50.870;4.722;2023-05-10T04:25:17;0.40;;;0.40;;
14554;SDS011;7364;50.870;4.722;2023-05-10T04:27:44;0.33;;;0.33;;
14554;SDS011;7364;50.870;4.722;2023-05-10T04:30:12;0.27;;;0.27;;
14554;SDS011;7364;50.870;4.722;2023-05-10T04:32:40;1.00;;;1.00;;
14554;SDS011;7364;50.870;4.722;2023-05-10T04:35:08;1.70;;;1.60;;
14554;SDS011;7364;50.870;4.722;2023-05-10T04:37:37;0.83;;;0.77;;
14554;SDS011;7364;50.870;4.722;2023-05-10T04:40:05;2.20;;;2.10;;
14554;SDS011;7364;50.870;4.722;2023-05-10T04:42:33;2.13;;;1.40;;
14554;SDS011;7364;50.870;4.722;2023-05-10T04:45:00;2.23;;;2.13;;
14554;SDS011;7364;50.870;4.722;2023-05-10T04:47:27;1.77;;;1.67;;
14554;SDS011;7364;50.870;4.722;2023-05-10T04:49:54;0.73;;;0.73;;
14554;SDS011;7364;50.870;4.722;2023-05-10T04:52:22;1.57;;;1.47;;
14554;SDS011;7364;50.870;4.722;2023-05-10T04:54:50;2.03;;;1.93;;
14554;SDS011;7364;50.870;4.722;2023-05-10T04:57:17;0.87;;;0.87;;
14554;SDS011;7364;50.870;4.722;2023-05-10T04:59:45;1.63;;;1.53;;
14554;SDS011;7364;50.870;4.722;2023-05-10T05:02:15;3.40;;;3.10;;
14554;SDS011;7364;50.870;4.722;2023-05-10T05:04:42;1.00;;;1.00;;
14554;SDS011;7364;50.870;4.722;2023-05-10T05:07:09;5.53;;;1.63;;
14554;SDS011;7364;50.870;4.722;2023-05-10T05:09:36;1.90;;;1.80;;
14554;SDS011;7364;50.870;4.722;2023-05-10T05:12:05;15.93;;;2.47;;
14554;SDS011;7364;50.870;4.722;2023-05-10T05:14:32;0.60;;;0.60;;
14554;SDS011;7364;50.870;4.722;2023-05-10T05:16:59;2.23;;;1.47;;
14554;SDS011;7364;50.870;4.722;2023-05-10T05:19:27;2.27;;;1.60;;
14554;SDS011;7364;50.870;4.722;2023-05-10T05:21:54;6.30;;;1.60;;
14554;SDS011;7364;50.870;4.722;2023-05-10T05:24:21;2.10;;;0.97;;
14554;SDS011;7364;50.870;4.722;2023-05-10T05:26:48;2.00;;;1.90;;
14554;SDS011;7364;50.870;4.722;2023-05-10T05:29:17;2.43;;;2.23;;
14554;SDS011;7364;50.870;4.722;2023-05-10T05:31:44;1.23;;;1.17;;
14554;SDS011;7364;50.870;4.722;2023-05-10T05:34:12;3.70;;;1.80;;
14554;SDS011;7364;50.870;4.722;2023-05-10T05:36:40;3.50;;;3.30;;
14554;SDS011;7364;50.870;4.722;2023-05-10T05:39:07;1.23;;;1.20;;
14554;SDS011;7364;50.870;4.722;2023-05-10T05:41:34;1.60;;;1.50;;
14554;SDS011;7364;50.870;4.722;2023-05-10T05:44:02;1.20;;;1.20;;
14554;SDS011;7364;50.870;4.722;2023-05-10T05:46:31;3.43;;;3.00;;
14554;SDS011;7364;50.870;4.722;2023-05-10T05:48:58;2.67;;;2.40;;
14554;SDS011;7364;50.870;4.722;2023-05-10T05:51:25;4.50;;;2.37;;
14554;SDS011;7364;50.870;4.722;2023-05-10T05:53:52;0.37;;;0.37;;
14554;SDS011;7364;50.870;4.722;2023-05-10T05:56:19;2.33;;;1.63;;
14554;SDS011;7364;50.870;4.722;2023-05-10T05:58:49;0.87;;;0.87;;
14554;SDS011;7364;50.870;4.722;2023-05-10T06:01:16;1.87;;;1.77;;
14554;SDS011;7364;50.870;4.722;2023-05-10T06:03:45;2.00;;;1.80;;
14554;SDS011;7364;50.870;4.722;2023-05-10T06:06:12;1.87;;;1.77;;
14554;SDS011;7364;50.870;4.722;2023-05-10T06:08:39;2.13;;;2.03;;
14554;SDS011;7364;50.870;4.722;2023-05-10T06:11:07;1.20;;;1.17;;
14554;SDS011;7364;50.870;4.722;2023-05-10T06:13:34;1.00;;;1.00;;
14554;SDS011;7364;50.870;4.722;2023-05-10T06:16:01;1.60;;;1.23;;
14554;SDS011;7364;50.870;4.722;2023-05-10T06:18:29;1.47;;;1.40;;
14554;SDS011;7364;50.870;4.722;2023-05-10T06:20:57;4.43;;;3.43;;
14554;SDS011;7364;50.870;4.722;2023-05-10T06:23:25;2.30;;;2.10;;
14554;SDS011;7364;50.870;4.722;2023-05-10T06:25:52;1.60;;;1.50;;
14554;SDS011;7364;50.870;4.722;2023-05-10T06:28:19;2.43;;;2.00;;
14554;SDS011;7364;50.870;4.722;2023-05-10T06:30:46;5.00;;;3.53;;
14554;SDS011;7364;50.870;4.722;2023-05-10T06:33:13;3.13;;;2.90;;
14554;SDS011;7364;50.870;4.722;2023-05-10T06:35:41;1.20;;;1.13;;
14554;SDS011;7364;50.870;4.722;2023-05-10T06:38:09;2.23;;;2.03;;
14554;SDS011;7364;50.870;4.722;2023-05-10T06:40:36;0.90;;;0.90;;
14554;SDS011;7364;50.870;4.722;2023-05-10T06:43:07;1.07;;;0.80;;
14554;SDS011;7364;50.870;4.722;2023-05-10T06:45:35;2.43;;;2.30;;
14554;SDS011;7364;50.870;4.722;2023-05-10T06:48:02;4.43;;;3.57;;
14554;SDS011;7364;50.870;4.722;2023-05-10T06:50:29;1.30;;;1.23;;
14554;SDS011;7364;50.870;4.722;2023-05-10T06:52:56;2.17;;;1.67;;
14554;SDS011;7364;50.870;4.722;2023-05-10T06:55:25;0.63;;;0.63;;
14554;SDS011;7364;50.870;4.722;2023-05-10T06:57:53;1.00;;;1.00;;
14554;SDS011;7364;50.870;4.722;2023-05-10T07:00:20;2.70;;;2.37;;
14554;SDS011;7364;50.870;4.722;2023-05-10T07:02:47;0.50;;;0.50;;
14554;SDS011;7364;50.870;4.722;2023-05-10T07:05:14;0.03;;;0.03;;
14554;SDS011;7364;50.870;4.722;2023-05-10T07:07:42;1.00;;;1.00;;
14554;SDS011;7364;50.870;4.722;2023-05-10T07:10:09;2.13;;;1.50;;
14554;SDS011;7364;50.870;4.722;2023-05-10T07:12:38;0.10;;;0.10;;
14554;SDS011;7364;50.870;4.722;2023-05-10T07:15:05;0.10;;;0.07;;
14554;SDS011;7364;50.870;4.722;2023-05-10T07:17:34;0.47;;;0.47;;
14554;SDS011;7364;50.870;4.722;2023-05-10T07:20:01;0.10;;;0.10;;
14554;SDS011;7364;50.870;4.722;2023-05-10T07:22:28;0.00;;;0.00;;
14554;SDS011;7364;50.870;4.722;2023-05-10T07:24:55;0.50;;;0.50;;
14554;SDS011;7364;50.870;4.722;2023-05-10T07:27:23;1.67;;;1.60;;
14554;SDS011;7364;50.870;4.722;2023-05-10T07:29:51;0.77;;;0.77;;
14554;SDS011;7364;50.870;4.722;2023-05-10T07:32:19;0.57;;;0.57;;
14554;SDS011;7364;50.870;4.722;2023-05-10T07:34:47;0.30;;;0.30;;
14554;SDS011;7364;50.870;4.722;2023-05-10T07:37:14;0.50;;;0.50;;
14554;SDS011;7364;50.870;4.722;2023-05-10T07:39:41;0.23;;;0.20;;
14554;SDS011;7364;50.870;4.722;2023-05-10T07:42:08;0.40;;;0.40;;
14554;SDS011;7364;50.870;4.722;2023-05-10T07:44:35;0.00;;;0.00;;
14554;SDS011;7364;50.870;4.722;2023-05-10T07:47:04;0.60;;;0.57;;
14554;SDS011;7364;50.870;4.722;2023-05-10T07:49:31;7.23;;;3.80;;
14554;SDS011;7364;50.870;4.722;2023-05-10T07:51:58;4.93;;;3.77;;
14554;SDS011;7364;50.870;4.722;2023-05-10T07:54:26;7.40;;;4.13;;
14554;SDS011;7364;50.870;4.722;2023-05-10T07:56:53;7.10;;;4.20;;
14554;SDS011;7364;50.870;4.722;2023-05-10T07:59:20;6.50;;;4.63;;
14554;SDS011;7364;50.870;4.722;2023-05-10T08:01:47;7.57;;;5.83;;
14554;SDS011;7364;50.870;4.722;2023-05-10T08:04:16;10.43;;;7.00;;
14554;SDS011;7364;50.870;4.722;2023-05-10T08:06:43;9.83;;;6.93;;
14554;SDS011;7364;50.870;4.722;2023-05-10T08:09:10;10.03;;;7.40;;
14554;SDS011;7364;50.870;4.722;2023-05-10T08:11:38;14.13;;;7.20;;
14554;SDS011;7364;50.870;4.722;2023-05-10T08:14:05;8.93;;;6.70;;
14554;SDS011;7364;50.870;4.722;2023-05-10T08:16:32;10.33;;;8.33;;
14554;SDS011;7364;50.870;4.722;2023-05-10T08:18:59;17.07;;;10.10;;
14554;SDS011;7364;50.870;4.722;2023-05-10T08:21:28;12.80;;;8.00;;
14554;SDS011;7364;50.870;4.722;2023-05-10T08:23:56;13.23;;;9.97;;
14554;SDS011;7364;50.870;4.722;2023-05-10T08:26:23;13.33;;;9.90;;
14554;SDS011;7364;50.870;4.722;2023-05-10T08:28:51;13.87;;;10.50;;
14554;SDS011;7364;50.870;4.722;2023-05-10T08:31:18;12.20;;;9.03;;
14554;SDS011;7364;50.870;4.722;2023-05-10T08:33:45;14.07;;;10.30;;
14554;SDS011;7364;50.870;4.722;2023-05-10T08:36:12;14.80;;;10.27;;
14554;SDS011;7364;50.870;4.722;2023-05-10T08:38:46;14.77;;;9.50;;
14554;SDS011;7364;50.870;4.722;2023-05-10T08:41:13;15.57;;;9.50;;
14554;SDS011;7364;50.870;4.722;2023-05-10T08:43:41;19.30;;;10.67;;
14554;SDS011;7364;50.870;4.722;2023-05-10T08:46:11;14.50;;;9.60;;
14554;SDS011;7364;50.870;4.722;2023-05-10T08:48:41;12.83;;;7.93;;
14554;SDS011;7364;50.870;4.722;2023-05-10T08:51:09;15.00;;;9.53;;
14554;SDS011;7364;50.870;4.722;2023-05-10T08:53:39;13.57;;;9.23;;
14554;SDS011;7364;50.870;4.722;2023-05-10T08:56:08;14.83;;;9.70;;
14554;SDS011;7364;50.870;4.722;2023-05-10T08:58:35;14.03;;;9.17;;
14554;SDS011;7364;50.870;4.722;2023-05-10T09:01:03;12.47;;;9.33;;
14554;SDS011;7364;50.870;4.722;2023-05-10T09:03:31;11.90;;;8.60;;
14554;SDS011;7364;50.870;4.722;2023-05-10T09:05:58;9.70;;;8.30;;
14554;SDS011;7364;50.870;4.722;2023-05-10T09:08:26;10.53;;;7.90;;
14554;SDS011;7364;50.870;4.722;2023-05-10T09:10:53;12.13;;;8.80;;
14554;SDS011;7364;50.870;4.722;2023-05-10T09:13:23;12.90;;;8.50;;
14554;SDS011;7364;50.870;4.722;2023-05-10T09:15:51;11.23;;;7.93;;
14554;SDS011;7364;50.870;4.722;2023-05-10T09:18:19;10.13;;;8.57;;
14554;SDS011;7364;50.870;4.722;2023-05-10T09:20:46;14.23;;;8.13;;
14554;SDS011;7364;50.870;4.722;2023-05-10T09:23:14;11.90;;;7.73;;
14554;SDS011;7364;50.870;4.722;2023-05-10T09:25:41;11.23;;;6.60;;
14554;SDS011;7364;50.870;4.722;2023-05-10T09:28:08;8.17;;;7.00;;
14554;SDS011;7364;50.870;4.722;2023-05-10T09:30:37;9.80;;;6.80;;
14554;SDS011;7364;50.870;4.722;2023-05-10T09:33:05;9.17;;;6.83;;
14554;SDS011;7364;50.870;4.722;2023-05-10T09:35:33;9.33;;;6.67;;
14554;SDS011;7364;50.870;4.722;2023-05-10T09:38:02;8.20;;;6.23;;
14554;SDS011;7364;50.870;4.722;2023-05-10T09:40:30;6.47;;;5.60;;
14554;SDS011;7364;50.870;4.722;2023-05-10T09:42:58;7.70;;;5.50;;
14554;SDS011;7364;50.870;4.722;2023-05-10T09:45:26;6.60;;;4.90;;
14554;SDS011;7364;50.870;4.722;2023-05-10T09:47:56;6.07;;;4.63;;
14554;SDS011;7364;50.870;4.722;2023-05-10T09:50:24;7.37;;;4.47;;
14554;SDS011;7364;50.870;4.722;2023-05-10T09:52:52;6.53;;;4.37;;
14554;SDS011;7364;50.870;4.722;2023-05-10T09:55:21;4.70;;;3.40;;
14554;SDS011;7364;50.870;4.722;2023-05-10T09:57:57;6.23;;;3.83;;
14554;SDS011;7364;50.870;4.722;2023-05-10T10:00:26;5.77;;;4.20;;
14554;SDS011;7364;50.870;4.722;2023-05-10T10:02:54;4.27;;;3.60;;
14554;SDS011;7364;50.870;4.722;2023-05-10T10:05:27;5.53;;;3.67;;
14554;SDS011;7364;50.870;4.722;2023-05-10T10:07:55;4.50;;;3.20;;
14554;SDS011;7364;50.870;4.722;2023-05-10T10:10:24;6.00;;;3.37;;
14554;SDS011;7364;50.870;4.722;2023-05-10T10:12:51;8.37;;;3.53;;
14554;SDS011;7364;50.870;4.722;2023-05-10T10:15:18;4.30;;;2.57;;
14554;SDS011;7364;50.870;4.722;2023-05-10T10:17:47;4.43;;;2.87;;
14554;SDS011;7364;50.870;4.722;2023-05-10T10:20:17;3.27;;;2.70;;
14554;SDS011;7364;50.870;4.722;2023-05-10T10:22:47;4.40;;;2.80;;
14554;SDS011;7364;50.870;4.722;2023-05-10T10:25:15;3.10;;;2.33;;
14554;SDS011;7364;50.870;4.722;2023-05-10T10:27:47;3.67;;;2.43;;
14554;SDS011;7364;50.870;4.722;2023-05-10T10:30:24;3.30;;;2.50;;
14554;SDS011;7364;50.870;4.722;2023-05-10T10:33:06;4.00;;;2.33;;
14554;SDS011;7364;50.870;4.722;2023-05-10T10:35:46;4.67;;;2.27;;
14554;SDS011;7364;50.870;4.722;2023-05-10T10:38:13;4.00;;;2.70;;
14554;SDS011;7364;50.870;4.722;2023-05-10T10:40:41;4.13;;;2.53;;
14554;SDS011;7364;50.870;4.722;2023-05-10T10:46:10;2.20;;;2.00;;
14554;SDS011;7364;50.870;4.722;2023-05-10T10:48:39;5.33;;;2.17;;
14554;SDS011;7364;50.870;4.722;2023-05-10T10:51:08;3.57;;;1.77;;
14554;SDS011;7364;50.870;4.722;2023-05-10T10:53:36;3.23;;;2.03;;
14554;SDS011;7364;50.870;4.722;2023-05-10T10:56:06;2.50;;;1.90;;
14554;SDS011;7364;50.870;4.722;2023-05-10T10:58:34;2.10;;;1.60;;
14554;SDS011;7364;50.870;4.722;2023-05-10T11:01:09;2.97;;;1.83;;
14554;SDS011;7364;50.870;4.722;2023-05-10T11:03:38;5.30;;;1.80;;
14554;SDS011;7364;50.870;4.722;2023-05-10T11:06:05;4.10;;;1.70;;
14554;SDS011;7364;50.870;4.722;2023-05-10T11:08:39;1.70;;;1.40;;
14554;SDS011;7364;50.870;4.722;2023-05-10T11:11:09;2.07;;;1.40;;
14554;SDS011;7364;50.870;4.722;2023-05-10T11:13:41;2.23;;;1.50;;
14554;SDS011;7364;50.870;4.722;2023-05-10T11:16:10;1.80;;;1.50;;
14554;SDS011;7364;50.870;4.722;2023-05-10T11:18:39;3.63;;;1.80;;
14554;SDS011;7364;50.870;4.722;2023-05-10T11:21:09;2.50;;;1.60;;
14554;SDS011;7364;50.870;4.722;2023-05-10T11:23:49;1.43;;;1.13;;
14554;SDS011;7364;50.870;4.722;2023-05-10T11:26:17;2.50;;;1.10;;
14554;SDS011;7364;50.870;4.722;2023-05-10T11:28:48;1.90;;;1.03;;
14554;SDS011;7364;50.870;4.722;2023-05-10T11:31:16;1.83;;;1.10;;
14554;SDS011;7364;50.870;4.722;2023-05-10T11:33:45;1.10;;;0.90;;
14554;SDS011;7364;50.870;4.722;2023-05-10T11:36:15;3.63;;;0.87;;
14554;SDS011;7364;50.870;4.722;2023-05-10T11:38:43;2.97;;;1.00;;
14554;SDS011;7364;50.870;4.722;2023-05-10T11:41:11;1.10;;;0.90;;
14554;SDS011;7364;50.870;4.722;2023-05-10T11:43:39;1.27;;;0.90;;
14554;SDS011;7364;50.870;4.722;2023-05-10T11:46:07;0.90;;;0.80;;
14554;SDS011;7364;50.870;4.722;2023-05-10T11:48:37;1.60;;;1.10;;
14554;SDS011;7364;50.870;4.722;2023-05-10T11:51:06;1.33;;;0.93;;
14554;SDS011;7364;50.870;4.722;2023-05-10T11:53:35;0.83;;;0.80;;
14554;SDS011;7364;50.870;4.722;2023-05-10T11:56:03;1.20;;;1.00;;
14554;SDS011;7364;50.870;4.722;2023-05-10T11:58:31;1.53;;;1.17;;
14554;SDS011;7364;50.870;4.722;2023-05-10T12:01:01;1.87;;;1.33;;
14554;SDS011;7364;50.870;4.722;2023-05-10T12:03:29;2.07;;;1.40;;
14554;SDS011;7364;50.870;4.722;2023-05-10T12:05:57;1.80;;;1.30;;
14554;SDS011;7364;50.870;4.722;2023-05-10T12:08:26;2.60;;;1.60;;
14554;SDS011;7364;50.870;4.722;2023-05-10T12:11:03;1.67;;;1.50;;
14554;SDS011;7364;50.870;4.722;2023-05-10T12:13:31;2.70;;;1.70;;
14554;SDS011;7364;50.870;4.722;2023-05-10T12:15:59;3.30;;;1.63;;
14554;SDS011;7364;50.870;4.722;2023-05-10T12:18:26;1.57;;;1.37;;
14554;SDS011;7364;50.870;4.722;2023-05-10T12:20:53;1.87;;;1.30;;
14554;SDS011;7364;50.870;4.722;2023-05-10T12:23:28;2.03;;;1.27;;
14554;SDS011;7364;50.870;4.722;2023-05-10T12:26:01;4.40;;;1.70;;
14554;SDS011;7364;50.870;4.722;2023-05-10T12:28:29;1.70;;;1.40;;
14554;SDS011;7364;50.870;4.722;2023-05-10T12:30:57;2.53;;;1.80;;
14554;SDS011;7364;50.870;4.722;2023-05-10T12:33:25;3.10;;;1.70;;
14554;SDS011;7364;50.870;4.722;2023-05-10T12:35:54;2.60;;;1.90;;
14554;SDS011;7364;50.870;4.722;2023-05-10T12:38:25;3.23;;;1.83;;
14554;SDS011;7364;50.870;4.722;2023-05-10T12:40:54;3.20;;;1.67;;
14554;SDS011;7364;50.870;4.722;2023-05-10T12:43:23;3.17;;;1.70;;
14554;SDS011;7364;50.870;4.722;2023-05-10T12:45:50;2.17;;;1.37;;
14554;SDS011;7364;50.870;4.722;2023-05-10T12:48:17;2.40;;;1.70;;
14554;SDS011;7364;50.870;4.722;2023-05-10T12:50:45;2.07;;;1.40;;
14554;SDS011;7364;50.870;4.722;2023-05-10T12:53:13;3.23;;;1.80;;
14554;SDS011;7364;50.870;4.722;2023-05-10T12:55:40;3.23;;;1.67;;
14554;SDS011;7364;50.870;4.722;2023-05-10T12:58:09;1.77;;;1.17;;
14554;SDS011;7364;50.870;4.722;2023-05-10T13:00:37;2.17;;;1.43;;
14554;SDS011;7364;50.870;4.722;2023-05-10T13:03:04;2.17;;;1.30;;
14554;SDS011;7364;50.870;4.722;2023-05-10T13:05:31;2.00;;;1.37;;
14554;SDS011;7364;50.870;4.722;2023-05-10T13:07:59;1.53;;;1.00;;
14554;SDS011;7364;50.870;4.722;2023-05-10T13:10:27;1.63;;;1.20;;
14554;SDS011;7364;50.870;4.722;2023-05-10T13:12:56;2.43;;;1.23;;
14554;SDS011;7364;50.870;4.722;2023-05-10T13:15:29;2.23;;;1.37;;
14554;SDS011;7364;50.870;4.722;2023-05-10T13:17:56;1.87;;;1.30;;
14554;SDS011;7364;50.870;4.722;2023-05-10T13:20:24;2.13;;;1.30;;
14554;SDS011;7364;50.870;4.722;2023-05-10T13:22:52;4.70;;;1.50;;
14554;SDS011;7364;50.870;4.722;2023-05-10T13:25:19;2.20;;;1.57;;
14554;SDS011;7364;50.870;4.722;2023-05-10T13:27:46;2.40;;;1.70;;
14554;SDS011;7364;50.870;4.722;2023-05-10T13:30:14;2.20;;;1.40;;
14554;SDS011;7364;50.870;4.722;2023-05-10T13:32:43;3.13;;;1.60;;
14554;SDS011;7364;50.870;4.722;2023-05-10T13:35:10;1.80;;;1.23;;
14554;SDS011;7364;50.870;4.722;2023-05-10T13:37:37;2.43;;;1.50;;
14554;SDS011;7364;50.870;4.722;2023-05-10T13:40:05;2.13;;;1.37;;
14554;SDS011;7364;50.870;4.722;2023-05-10T13:42:33;1.90;;;1.47;;
14554;SDS011;7364;50.870;4.722;2023-05-10T13:45:00;2.27;;;1.70;;
14554;SDS011;7364;50.870;4.722;2023-05-10T13:47:31;1.97;;;1.47;;
14554;SDS011;7364;50.870;4.722;2023-05-10T13:49:59;2.63;;;1.60;;
14554;SDS011;7364;50.870;4.722;2023-05-10T13:52:28;2.40;;;1.80;;
14554;SDS011;7364;50.870;4.722;2023-05-10T13:54:55;4.77;;;2.00;;
14554;SDS011;7364;50.870;4.722;2023-05-10T13:57:22;2.67;;;1.60;;
14554;SDS011;7364;50.870;4.722;2023-05-10T13:59:49;2.70;;;1.77;;
14554;SDS011;7364;50.870;4.722;2023-05-10T14:02:17;2.90;;;1.50;;
14554;SDS011;7364;50.870;4.722;2023-05-10T14:04:45;2.10;;;1.50;;
14554;SDS011;7364;50.870;4.722;2023-05-10T14:07:13;2.00;;;1.40;;
14554;SDS011;7364;50.870;4.722;2023-05-10T14:09:41;1.90;;;1.57;;
14554;SDS011;7364;50.870;4.722;2023-05-10T14:12:08;2.37;;;1.57;;
14554;SDS011;7364;50.870;4.722;2023-05-10T14:14:35;2.23;;;1.27;;
14554;SDS011;7364;50.870;4.722;2023-05-10T14:17:02;2.00;;;1.73;;
14554;SDS011;7364;50.870;4.722;2023-05-10T14:19:30;2.17;;;1.57;;
14554;SDS011;7364;50.870;4.722;2023-05-10T14:21:59;2.00;;;1.80;;
14554;SDS011;7364;50.870;4.722;2023-05-10T14:24:27;2.17;;;1.70;;
14554;SDS011;7364;50.870;4.722;2023-05-10T14:26:54;3.43;;;1.87;;
14554;SDS011;7364;50.870;4.722;2023-05-10T14:29:22;2.70;;;1.80;;
14554;SDS011;7364;50.870;4.722;2023-05-10T14:31:49;2.30;;;1.97;;
14554;SDS011;7364;50.870;4.722;2023-05-10T14:34:20;3.17;;;2.50;;
14554;SDS011;7364;50.870;4.722;2023-05-10T14:36:47;5.17;;;2.70;;
14554;SDS011;7364;50.870;4.722;2023-05-10T14:39:14;3.20;;;2.30;;
14554;SDS011;7364;50.870;4.722;2023-05-10T14:41:43;3.03;;;2.33;;
14554;SDS011;7364;50.870;4.722;2023-05-10T14:44:12;3.20;;;2.60;;
14554;SDS011;7364;50.870;4.722;2023-05-10T14:46:40;6.63;;;2.60;;
14554;SDS011;7364;50.870;4.722;2023-05-10T14:49:08;3.73;;;2.43;;
14554;SDS011;7364;50.870;4.722;2023-05-10T14:51:35;5.27;;;2.97;;
14554;SDS011;7364;50.870;4.722;2023-05-10T14:54:03;2.80;;;2.20;;
14554;SDS011;7364;50.870;4.722;2023-05-10T14:56:31;4.07;;;2.80;;
14554;SDS011;7364;50.870;4.722;2023-05-10T14:58:59;3.80;;;2.53;;
14554;SDS011;7364;50.870;4.722;2023-05-10T15:01:27;3.03;;;2.47;;
14554;SDS011;7364;50.870;4.722;2023-05-10T15:03:54;3.30;;;2.73;;
14554;SDS011;7364;50.870;4.722;2023-05-10T15:06:23;3.67;;;2.90;;
14554;SDS011;7364;50.870;4.722;2023-05-10T15:08:56;5.63;;;2.60;;
14554;SDS011;7364;50.870;4.722;2023-05-10T15:11:23;4.33;;;2.60;;
14554;SDS011;7364;50.870;4.722;2023-05-10T15:13:51;4.47;;;2.77;;